createdAt,value
2023-04-18T00:01:14.975Z,4.96
2023-04-18T00:03:46.092Z,4.95
2023-04-18T00:06:16.409Z,4.92
2023-04-18T00:08:48.599Z,4.85
2023-04-18T00:11:18.154Z,4.94
2023-04-18T00:13:47.673Z,4.94
2023-04-18T00:16:17.372Z,5.02
2023-04-18T00:18:48.279Z,4.99
2023-04-18T00:21:17.911Z,4.93
2023-04-18T00:23:50.003Z,4.97
2023-04-18T00:26:19.497Z,4.95
2023-04-18T00:28:49.057Z,4.99
2023-04-18T00:31:18.629Z,5.02
2023-04-18T00:33:48.231Z,4.93
2023-04-18T00:36:17.796Z,5.00
2023-04-18T00:38:49.893Z,5.09
2023-04-18T00:41:19.465Z,5.04
2023-04-18T00:43:48.962Z,5.01
2023-04-18T00:46:18.517Z,5.03
2023-04-18T00:48:48.095Z,4.93
2023-04-18T00:51:18.177Z,4.84
2023-04-18T00:53:50.604Z,4.80
2023-04-18T00:56:20.151Z,4.80
2023-04-18T00:58:49.677Z,4.63
2023-04-18T01:01:19.284Z,4.64
2023-04-18T01:03:48.813Z,4.62
2023-04-18T01:06:18.319Z,4.54
2023-04-18T01:08:50.446Z,4.52
2023-04-18T01:11:20.175Z,4.50
2023-04-18T01:14:01.740Z,4.45
2023-04-18T01:16:32.924Z,4.39
2023-04-18T01:19:02.687Z,4.40
2023-04-18T01:21:34.056Z,4.31
2023-04-18T01:24:15.289Z,4.34
2023-04-18T01:26:47.741Z,4.35
2023-04-18T01:29:17.399Z,4.32
2023-04-18T01:31:47.058Z,4.23
2023-04-18T01:34:17.981Z,4.21
2023-04-18T01:36:47.869Z,4.27
2023-04-18T01:39:20.385Z,4.17
2023-04-18T01:41:49.877Z,4.10
2023-04-18T01:44:19.402Z,4.16
2023-04-18T01:46:48.990Z,4.13
2023-04-18T01:49:19.126Z,4.13
2023-04-18T01:51:48.606Z,4.17
2023-04-18T01:54:20.725Z,3.98
2023-04-18T01:56:50.229Z,4.03
2023-04-18T01:59:19.748Z,4.07
2023-04-18T02:01:49.454Z,4.00
2023-04-18T02:04:19.101Z,3.99
2023-04-18T02:06:48.622Z,3.98
2023-04-18T02:09:21.182Z,4.00
2023-04-18T02:11:50.735Z,4.02
2023-04-18T02:14:20.256Z,3.94
2023-04-18T02:16:49.774Z,3.88
2023-04-18T02:19:19.300Z,3.85
2023-04-18T02:21:48.769Z,3.91
2023-04-18T02:24:21.259Z,3.80
2023-04-18T02:26:50.809Z,3.84
2023-04-18T02:29:20.345Z,3.89
2023-04-18T02:31:49.847Z,3.76
2023-04-18T02:34:19.386Z,3.76
2023-04-18T02:36:49.834Z,3.69
2023-04-18T02:39:21.870Z,3.64
2023-04-18T02:41:51.378Z,3.61
2023-04-18T02:44:20.897Z,3.55
2023-04-18T02:46:50.426Z,3.50
2023-04-18T02:49:20.011Z,3.50
2023-04-18T02:51:49.512Z,3.43
2023-04-18T02:54:21.582Z,3.45
2023-04-18T02:56:51.044Z,3.43
2023-04-18T02:59:20.646Z,3.38
2023-04-18T03:01:50.184Z,3.51
2023-04-18T03:04:19.758Z,3.48
2023-04-18T03:06:50.222Z,3.44
2023-04-18T03:09:22.278Z,3.41
2023-04-18T03:11:51.792Z,3.30
2023-04-18T03:14:21.368Z,3.28
2023-04-18T03:16:53.057Z,3.29
2023-04-18T03:19:24.599Z,3.30
2023-04-18T03:21:54.067Z,3.23
2023-04-18T03:24:26.273Z,3.26
2023-04-18T03:26:55.770Z,3.22
2023-04-18T03:29:25.304Z,3.20
2023-04-18T03:31:54.867Z,3.23
2023-04-18T03:34:24.358Z,3.32
2023-04-18T03:36:53.897Z,3.40
2023-04-18T03:39:25.990Z,3.46
2023-04-18T03:41:55.490Z,3.50
2023-04-18T03:44:24.956Z,3.40
2023-04-18T03:46:54.464Z,3.47
2023-04-18T03:49:23.926Z,3.47
2023-04-18T03:51:53.434Z,3.46
2023-04-18T03:54:22.991Z,3.37
2023-04-18T03:56:55.130Z,3.40
2023-04-18T03:59:24.686Z,3.32
2023-04-18T04:01:54.269Z,3.38
2023-04-18T04:04:23.983Z,3.33
2023-04-18T04:06:53.886Z,3.26
2023-04-18T04:09:23.362Z,3.31
2023-04-18T04:11:55.461Z,3.35
2023-04-18T04:14:24.953Z,3.37
2023-04-18T04:16:54.679Z,3.42
2023-04-18T04:19:24.169Z,3.41
2023-04-18T04:21:53.766Z,3.37
2023-04-18T04:24:23.300Z,3.28
2023-04-18T04:26:56.454Z,3.29
2023-04-18T04:29:26.354Z,3.32
2023-04-18T04:31:55.925Z,3.39
2023-04-18T04:34:25.534Z,3.51
2023-04-18T04:36:55.084Z,3.52
2023-04-18T04:39:24.598Z,3.60
2023-04-18T04:41:57.744Z,3.63
2023-04-18T04:44:27.289Z,3.60
2023-04-18T04:46:57.181Z,3.63
2023-04-18T04:49:26.750Z,3.65
2023-04-18T04:51:56.704Z,3.64
2023-04-18T04:54:26.318Z,3.58
2023-04-18T04:56:58.422Z,3.60
2023-04-18T04:59:27.980Z,3.57
2023-04-18T05:01:57.594Z,3.59
2023-04-18T05:04:27.285Z,3.65
2023-04-18T05:06:56.932Z,3.60
2023-04-18T05:09:26.497Z,3.79
2023-04-18T05:11:58.768Z,3.72
2023-04-18T05:14:28.269Z,3.75
2023-04-18T05:16:58.437Z,3.82
2023-04-18T05:19:28.070Z,3.86
2023-04-18T05:21:57.625Z,3.87
2023-04-18T05:24:27.167Z,3.90
2023-04-18T05:26:59.220Z,4.00
2023-04-18T05:29:28.732Z,4.05
2023-04-18T05:31:58.274Z,4.16
2023-04-18T05:34:27.879Z,4.18
2023-04-18T05:36:57.373Z,4.15
2023-04-18T05:39:26.956Z,4.28
2023-04-18T05:41:59.020Z,4.34
2023-04-18T05:44:28.581Z,4.38
2023-04-18T05:46:58.089Z,4.63
2023-04-18T05:49:27.731Z,5.25
2023-04-18T05:51:57.783Z,5.65
2023-04-18T05:54:27.764Z,6.29
2023-04-18T05:57:00.191Z,6.35
2023-04-18T05:59:30.396Z,6.56
2023-04-18T06:02:00.289Z,6.97
2023-04-18T06:04:29.951Z,6.78
2023-04-18T06:06:59.671Z,6.64
2023-04-18T06:09:29.332Z,6.66
2023-04-18T06:12:01.701Z,6.83
2023-04-18T06:14:31.496Z,6.76
2023-04-18T06:17:01.149Z,6.43
2023-04-18T06:19:30.733Z,5.76
2023-04-18T06:22:01.487Z,5.52
2023-04-18T06:24:31.327Z,5.53
2023-04-18T06:27:03.520Z,5.56
2023-04-18T06:29:33.770Z,5.53
2023-04-18T06:32:04.180Z,5.73
2023-04-18T06:34:33.726Z,5.77
2023-04-18T06:37:03.316Z,5.95
2023-04-18T06:39:33.022Z,6.11
2023-04-18T06:42:05.413Z,6.10
2023-04-18T06:44:36.059Z,6.07
2023-04-18T06:47:05.882Z,6.19
2023-04-18T06:49:35.359Z,6.15
2023-04-18T06:52:04.887Z,6.12
2023-04-18T06:54:34.496Z,6.08
2023-04-18T06:57:06.734Z,6.20
2023-04-18T06:59:37.609Z,6.29
2023-04-18T07:02:07.191Z,6.41
2023-04-18T07:04:36.860Z,6.51
2023-04-18T07:07:06.767Z,6.60
2023-04-18T07:09:36.371Z,6.70
2023-04-18T07:12:08.924Z,6.77
2023-04-18T07:14:38.480Z,6.86
2023-04-18T07:17:08.056Z,6.95
2023-04-18T07:19:37.620Z,6.93
2023-04-18T07:22:07.163Z,7.02
2023-04-18T07:24:36.709Z,7.10
2023-04-18T07:27:09.671Z,7.02
2023-04-18T07:29:45.862Z,6.96
2023-04-18T07:32:15.588Z,6.83
2023-04-18T07:34:45.195Z,6.84
2023-04-18T07:37:15.255Z,6.89
2023-04-18T07:39:44.890Z,6.99
2023-04-18T07:42:16.963Z,7.22
2023-04-18T07:44:47.076Z,7.32
2023-04-18T07:47:16.689Z,7.35
2023-04-18T07:49:46.594Z,7.37
2023-04-18T07:52:16.160Z,7.40
2023-04-18T07:54:45.673Z,7.47
2023-04-18T07:57:17.795Z,7.62
2023-04-18T07:59:47.337Z,7.78
2023-04-18T08:02:17.065Z,8.08
2023-04-18T08:04:47.296Z,8.15
2023-04-18T08:07:17.130Z,8.62
2023-04-18T08:09:46.649Z,8.29
2023-04-18T08:12:18.784Z,8.71
2023-04-18T08:14:48.331Z,8.70
2023-04-18T08:17:17.887Z,8.44
2023-04-18T08:19:47.523Z,8.57
2023-04-18T08:22:17.033Z,8.47
2023-04-18T08:25:01.164Z,8.51
2023-04-18T08:27:36.414Z,8.78
2023-04-18T08:30:07.205Z,8.91
2023-04-18T08:32:38.033Z,8.92
2023-04-18T08:35:08.321Z,8.78
2023-04-18T08:37:37.996Z,8.82
2023-04-18T08:40:08.953Z,8.87
2023-04-18T08:42:41.149Z,8.82
2023-04-18T08:45:12.523Z,8.56
2023-04-18T08:47:42.346Z,8.41
2023-04-18T08:50:13.310Z,8.62
2023-04-18T08:52:45.119Z,8.63
2023-04-18T08:55:14.643Z,8.68
2023-04-18T08:57:47.642Z,8.89
2023-04-18T09:00:19.912Z,9.24
2023-04-18T09:02:49.633Z,9.32
2023-04-18T09:05:20.348Z,9.62
2023-04-18T09:07:50.893Z,9.59
2023-04-18T09:10:29.145Z,9.37
2023-04-18T09:13:03.282Z,9.16
2023-04-18T09:15:33.320Z,9.05
2023-04-18T09:18:04.049Z,8.96
2023-04-18T09:20:40.135Z,8.98
2023-04-18T09:23:14.830Z,8.99
2023-04-18T09:25:48.228Z,8.96
2023-04-18T09:28:30.812Z,8.97
2023-04-18T09:31:01.797Z,8.96
2023-04-18T09:33:34.842Z,9.36
2023-04-18T09:36:20.436Z,9.70
2023-04-18T09:38:52.087Z,9.71
2023-04-18T09:41:23.354Z,9.64
2023-04-18T09:44:14.321Z,9.58
2023-04-18T09:46:47.557Z,9.61
2023-04-18T09:49:17.815Z,9.51
2023-04-18T09:51:47.790Z,9.72
2023-04-18T09:54:18.627Z,9.78
2023-04-18T09:56:50.517Z,9.44
2023-04-18T09:59:32.126Z,9.56
2023-04-18T10:02:02.390Z,9.66
2023-04-18T10:04:33.751Z,9.73
2023-04-18T10:07:03.676Z,9.78
2023-04-18T10:09:35.534Z,9.63
2023-04-18T10:12:05.630Z,9.46
2023-04-18T10:14:37.993Z,9.08
2023-04-18T10:17:07.654Z,8.95
2023-04-18T10:19:37.152Z,8.90
2023-04-18T10:22:06.689Z,8.91
2023-04-18T10:24:53.698Z,8.78
2023-04-18T10:28:00.507Z,8.71
2023-04-18T10:30:56.121Z,8.73
2023-04-18T10:33:34.042Z,8.51
2023-04-18T10:36:06.955Z,8.56
2023-04-18T10:38:38.856Z,8.51
2023-04-18T10:41:25.265Z,8.53
2023-04-18T10:44:18.868Z,8.43
2023-04-18T10:47:22.590Z,8.36
2023-04-18T10:50:01.430Z,8.36
2023-04-18T10:52:31.755Z,8.56
2023-04-18T10:55:11.661Z,8.86
2023-04-18T10:57:42.512Z,9.04
2023-04-18T11:00:16.955Z,9.23
2023-04-18T11:02:56.099Z,8.95
2023-04-18T11:05:27.666Z,9.09
2023-04-18T11:07:57.424Z,9.20
2023-04-18T11:10:28.534Z,9.41
2023-04-18T11:13:04.588Z,9.53
2023-04-18T11:15:40.001Z,9.59
2023-04-18T11:18:09.679Z,9.74
2023-04-18T11:20:41.311Z,9.66
2023-04-18T11:23:19.735Z,9.69
2023-04-18T11:25:49.528Z,9.52
2023-04-18T11:28:22.013Z,9.48
2023-04-18T11:30:54.169Z,9.68
2023-04-18T11:33:24.953Z,9.75
2023-04-18T11:35:59.826Z,9.81
2023-04-18T11:38:31.767Z,9.95
2023-04-18T11:41:01.872Z,10.00
2023-04-18T11:43:31.378Z,10.06
2023-04-18T11:46:03.517Z,10.22
2023-04-18T11:48:37.777Z,10.39
2023-04-18T11:51:08.059Z,10.32
2023-04-18T11:53:38.096Z,10.19
2023-04-18T11:56:08.612Z,10.30
2023-04-18T11:58:38.996Z,10.24
2023-04-18T12:01:25.232Z,10.31
2023-04-18T12:04:05.043Z,10.30
2023-04-18T12:06:50.020Z,10.34
2023-04-18T12:09:21.247Z,10.32
2023-04-18T12:12:00.274Z,10.25
2023-04-18T12:14:30.461Z,10.31
2023-04-18T12:17:05.989Z,10.43
2023-04-18T12:19:35.566Z,10.43
2023-04-18T12:22:06.796Z,10.21
2023-04-18T12:24:38.084Z,10.08
2023-04-18T12:27:07.921Z,10.16
2023-04-18T12:29:37.405Z,10.27
2023-04-18T12:32:09.538Z,10.21
2023-04-18T12:34:39.182Z,10.40
2023-04-18T12:37:09.521Z,10.32
2023-04-18T12:39:39.049Z,10.45
2023-04-18T12:42:08.863Z,10.58
2023-04-18T12:44:38.396Z,10.62
2023-04-18T12:47:10.824Z,10.46
2023-04-18T12:49:40.327Z,10.49
2023-04-18T12:52:09.806Z,10.31
2023-04-18T12:54:39.346Z,10.59
2023-04-18T12:57:08.992Z,10.80
2023-04-18T12:59:38.555Z,10.88
2023-04-18T13:02:10.815Z,10.97
2023-04-18T13:04:40.577Z,11.20
2023-04-18T13:07:10.253Z,11.47
2023-04-18T13:09:39.766Z,12.24
2023-04-18T13:12:09.790Z,12.69
2023-04-18T13:14:39.320Z,12.55
2023-04-18T13:17:11.480Z,12.73
2023-04-18T13:19:41.203Z,12.36
2023-04-18T13:22:10.750Z,12.12
2023-04-18T13:24:40.462Z,12.04
2023-04-18T13:27:12.846Z,11.97
2023-04-18T13:29:43.589Z,12.26
2023-04-18T13:32:15.886Z,12.51
2023-04-18T13:34:46.654Z,12.64
2023-04-18T13:37:16.825Z,12.74
2023-04-18T13:39:46.433Z,12.45
2023-04-18T13:42:16.358Z,12.45
2023-04-18T13:44:45.915Z,12.53
2023-04-18T13:47:18.053Z,12.61
2023-04-18T13:49:47.575Z,12.53
2023-04-18T13:52:17.620Z,12.34
2023-04-18T13:54:47.192Z,12.17
2023-04-18T13:57:16.709Z,12.01
2023-04-18T13:59:46.348Z,11.88
2023-04-18T14:02:18.584Z,11.62
2023-04-18T14:04:48.304Z,11.70
2023-04-18T14:07:17.938Z,11.59
2023-04-18T14:09:52.734Z,11.30
2023-04-18T14:12:23.444Z,11.23
2023-04-18T14:14:52.893Z,11.39
2023-04-18T14:17:24.945Z,11.19
2023-04-18T14:19:54.524Z,11.18
2023-04-18T14:22:23.976Z,11.31
2023-04-18T14:24:54.613Z,11.34
2023-04-18T14:27:26.249Z,11.26
2023-04-18T14:29:55.866Z,11.30
2023-04-18T14:32:28.089Z,11.41
2023-04-18T14:34:58.973Z,11.51
2023-04-18T14:37:28.497Z,11.72
2023-04-18T14:39:58.009Z,11.77
2023-04-18T14:42:27.744Z,12.19
2023-04-18T14:44:57.440Z,12.09
2023-04-18T14:47:31.952Z,12.07
2023-04-18T14:50:01.535Z,11.87
2023-04-18T14:52:40.221Z,11.71
2023-04-18T14:55:27.001Z,11.61
2023-04-18T14:58:44.235Z,11.72
2023-04-18T15:01:13.804Z,11.61
2023-04-18T15:03:46.048Z,11.73
2023-04-18T15:06:15.749Z,11.70
2023-04-18T15:08:45.714Z,11.75
2023-04-18T15:11:15.281Z,11.74
2023-04-18T15:13:44.827Z,11.73
2023-04-18T15:16:14.444Z,11.64
2023-04-18T15:18:46.537Z,11.82
2023-04-18T15:21:16.073Z,11.83
2023-04-18T15:23:45.535Z,11.71
2023-04-18T15:26:15.069Z,11.84
2023-04-18T15:28:45.409Z,11.94
2023-04-18T15:31:16.075Z,12.00
2023-04-18T15:33:48.190Z,11.78
2023-04-18T15:36:17.718Z,11.32
2023-04-18T15:38:47.281Z,11.27
2023-04-18T15:41:16.838Z,11.19
2023-04-18T15:43:46.479Z,11.17
2023-04-18T15:46:16.175Z,11.04
2023-04-18T15:48:48.329Z,11.09
2023-04-18T15:51:17.995Z,11.08
2023-04-18T15:53:47.530Z,11.24
2023-04-18T15:56:17.054Z,11.59
2023-04-18T15:58:46.618Z,11.63
2023-04-18T16:01:16.780Z,11.52
2023-04-18T16:03:48.876Z,11.45
2023-04-18T16:06:18.894Z,11.38
2023-04-18T16:08:48.347Z,11.30
2023-04-18T16:11:18.336Z,11.26
2023-04-18T16:13:47.830Z,11.53
2023-04-18T16:16:17.392Z,11.47
2023-04-18T16:18:49.525Z,11.48
2023-04-18T16:21:19.109Z,11.54
2023-04-18T16:23:48.877Z,11.36
2023-04-18T16:26:18.373Z,11.28
2023-04-18T16:28:48.678Z,11.03
2023-04-18T16:31:18.496Z,11.00
2023-04-18T16:33:52.705Z,10.92
2023-04-18T16:36:22.372Z,10.92
2023-04-18T16:38:51.868Z,11.05
2023-04-18T16:41:21.327Z,11.00
2023-04-18T16:43:50.883Z,10.87
2023-04-18T16:46:20.448Z,10.51
2023-04-18T16:48:52.761Z,10.44
2023-04-18T16:51:22.369Z,10.43
2023-04-18T16:53:51.889Z,10.40
2023-04-18T16:56:36.948Z,10.32
2023-04-18T16:59:09.335Z,10.16
2023-04-18T17:01:38.942Z,10.00
2023-04-18T17:04:11.398Z,9.96
2023-04-18T17:06:42.300Z,9.88
2023-04-18T17:09:13.822Z,9.88
2023-04-18T17:11:43.546Z,9.80
2023-04-18T17:14:13.255Z,9.79
2023-04-18T17:16:44.028Z,9.82
2023-04-18T17:19:16.365Z,9.80
2023-04-18T17:21:46.445Z,9.65
2023-04-18T17:24:18.786Z,9.61
2023-04-18T17:26:48.428Z,9.58
2023-04-18T17:29:18.583Z,9.63
2023-04-18T17:31:48.201Z,9.47
2023-04-18T17:34:20.434Z,9.48
2023-04-18T17:36:49.944Z,9.42
2023-04-18T17:39:19.489Z,9.34
2023-04-18T17:41:49.167Z,9.21
2023-04-18T17:44:18.632Z,9.11
2023-04-18T17:46:49.456Z,9.52
2023-04-18T17:49:23.404Z,9.65
2023-04-18T17:51:53.064Z,9.75
2023-04-18T17:54:22.554Z,9.65
2023-04-18T17:56:52.032Z,9.31
2023-04-18T17:59:21.564Z,9.14
2023-04-18T18:01:51.156Z,9.03
2023-04-18T18:04:26.355Z,9.00
2023-04-18T18:06:57.195Z,8.99
2023-04-18T18:09:26.827Z,9.02
2023-04-18T18:11:57.094Z,8.91
2023-04-18T18:14:26.898Z,8.79
2023-04-18T18:16:56.475Z,8.73
2023-04-18T18:19:28.786Z,8.60
2023-04-18T18:21:58.277Z,8.51
2023-04-18T18:24:28.040Z,8.42
2023-04-18T18:26:58.184Z,8.37
2023-04-18T18:29:27.764Z,8.22
2023-04-18T18:31:57.299Z,8.10
2023-04-18T18:34:32.134Z,8.11
2023-04-18T18:37:01.639Z,8.07
2023-04-18T18:39:31.182Z,7.93
2023-04-18T18:42:01.102Z,7.91
2023-04-18T18:44:30.774Z,7.89
2023-04-18T18:47:00.375Z,7.84
2023-04-18T18:49:32.441Z,7.72
2023-04-18T18:52:04.213Z,7.71
2023-04-18T18:54:33.771Z,7.62
2023-04-18T18:57:03.332Z,7.60
2023-04-18T18:59:32.926Z,7.53
2023-04-18T19:02:02.662Z,7.51
2023-04-18T19:04:35.228Z,7.51
2023-04-18T19:07:04.972Z,7.51
2023-04-18T19:09:34.531Z,7.45
2023-04-18T19:12:04.258Z,7.40
2023-04-18T19:14:33.842Z,7.35
2023-04-18T19:17:03.389Z,7.39
2023-04-18T19:19:35.446Z,7.40
2023-04-18T19:22:06.608Z,7.34
2023-04-18T19:24:36.136Z,7.34
2023-04-18T19:27:05.664Z,7.32
2023-04-18T19:29:35.134Z,7.27
2023-04-18T19:32:04.706Z,7.22
2023-04-18T19:34:36.892Z,7.23
2023-04-18T19:37:06.431Z,7.28
2023-04-18T19:39:36.159Z,7.29
2023-04-18T19:42:05.779Z,7.31
2023-04-18T19:44:35.285Z,7.32
2023-04-18T19:47:04.753Z,7.32
2023-04-18T19:49:36.861Z,7.30
2023-04-18T19:52:06.449Z,7.33
2023-04-18T19:54:36.085Z,7.29
2023-04-18T19:57:06.452Z,7.28
2023-04-18T19:59:35.930Z,7.25
2023-04-18T20:02:06.537Z,7.23
2023-04-18T20:04:40.816Z,7.27
2023-04-18T20:07:10.449Z,7.24
2023-04-18T20:09:40.227Z,7.07
2023-04-18T20:12:09.840Z,6.93
2023-04-18T20:14:39.413Z,6.84
2023-04-18T20:17:08.883Z,6.87
2023-04-18T20:19:41.502Z,6.91
2023-04-18T20:22:11.021Z,6.86
2023-04-18T20:24:41.390Z,6.75
2023-04-18T20:27:10.914Z,6.81
2023-04-18T20:29:40.483Z,6.71
2023-04-18T20:32:10.028Z,6.49
2023-04-18T20:34:42.126Z,6.51
2023-04-18T20:37:11.941Z,6.48
2023-04-18T20:39:42.273Z,6.37
2023-04-18T20:42:14.412Z,6.30
2023-04-18T20:44:47.030Z,6.26
2023-04-18T20:47:16.679Z,6.26
2023-04-18T20:49:48.729Z,6.20
2023-04-18T20:52:18.229Z,6.12
2023-04-18T20:54:47.742Z,6.12
2023-04-18T20:57:17.345Z,6.12
2023-04-18T20:59:46.868Z,6.05
2023-04-18T21:02:16.450Z,6.03
2023-04-18T21:04:49.493Z,5.89
2023-04-18T21:07:19.077Z,5.81
2023-04-18T21:09:48.589Z,5.80
2023-04-18T21:12:18.234Z,5.83
2023-04-18T21:14:48.201Z,5.76
2023-04-18T21:17:17.913Z,5.81
2023-04-18T21:19:50.764Z,5.79
2023-04-18T21:22:20.594Z,5.76
2023-04-18T21:24:50.070Z,5.66
2023-04-18T21:27:19.566Z,5.63
2023-04-18T21:29:49.104Z,5.62
2023-04-18T21:32:18.668Z,5.54
2023-04-18T21:34:50.865Z,5.65
2023-04-18T21:37:20.318Z,5.56
2023-04-18T21:39:50.089Z,5.56
2023-04-18T21:42:19.604Z,5.52
2023-04-18T21:44:49.124Z,5.48
2023-04-18T21:47:18.612Z,5.47
2023-04-18T21:49:52.041Z,5.42
2023-04-18T21:52:21.499Z,5.35
2023-04-18T21:54:51.002Z,5.42
2023-04-18T21:57:20.460Z,5.37
2023-04-18T21:59:49.978Z,5.37
2023-04-18T22:02:19.530Z,5.33
2023-04-18T22:04:51.703Z,5.27
2023-04-18T22:07:21.629Z,5.22
2023-04-18T22:09:51.334Z,5.28
2023-04-18T22:12:20.867Z,5.20
2023-04-18T22:14:52.225Z,5.17
2023-04-18T22:17:22.088Z,5.07
2023-04-18T22:19:54.900Z,5.00
2023-04-18T22:22:24.409Z,4.93
2023-04-18T22:24:53.968Z,4.88
2023-04-18T22:27:23.697Z,4.89
2023-04-18T22:29:53.649Z,5.07
2023-04-18T22:32:23.132Z,4.99
2023-04-18T22:34:55.487Z,4.93
2023-04-18T22:37:25.054Z,4.88
2023-04-18T22:39:54.552Z,4.84
2023-04-18T22:42:24.045Z,4.84
2023-04-18T22:44:53.540Z,4.90
2023-04-18T22:47:23.023Z,4.83
2023-04-18T22:49:55.072Z,4.83
2023-04-18T22:52:25.885Z,4.79
2023-04-18T22:54:55.938Z,4.80
2023-04-18T22:57:25.448Z,4.73
2023-04-18T22:59:54.958Z,4.66
2023-04-18T23:02:24.647Z,4.65
2023-04-18T23:04:58.434Z,4.78
2023-04-18T23:07:27.967Z,4.70
2023-04-18T23:09:57.475Z,4.76
2023-04-18T23:12:27.959Z,4.71
2023-04-18T23:14:57.448Z,4.72
2023-04-18T23:17:27.082Z,4.65
2023-04-18T23:19:59.177Z,4.62
2023-04-18T23:22:28.696Z,4.61
2023-04-18T23:24:58.263Z,4.54
2023-04-18T23:27:27.911Z,4.54
2023-04-18T23:29:57.411Z,4.50
2023-04-18T23:32:27.009Z,4.59
2023-04-18T23:35:04.074Z,4.59
2023-04-18T23:37:33.797Z,4.65
2023-04-18T23:40:06.826Z,4.65
2023-04-18T23:42:37.174Z,4.62
2023-04-18T23:45:07.728Z,4.71
2023-04-18T23:47:37.236Z,4.69
2023-04-18T23:50:10.911Z,4.70
2023-04-18T23:52:40.926Z,4.75
2023-04-18T23:55:11.471Z,4.76
2023-04-18T23:57:41.033Z,4.67
